Time;durP1;ratioP1;P1;durP2;ratioP2;P2;SDS_P1;SDS_P2;PMS_P1;PMS_P2;Temp;Humidity;BMP_temperature;BMP_pressure;BME280_temperature;BME280_humidity;BME280_pressure;Samples;Min_cycle;Max_cycle;Signal;HPM_P1;HPM_P2
2022/07/16 00:02:12;;;;;;;2.70;2.50;;;25.40;9.80;;;;;;5090688;28;20722;-78
2022/07/16 00:04:39;;;;;;;3.97;2.97;;;25.20;10.40;;;;;;5089914;28;20677;-82
2022/07/16 00:07:07;;;;;;;3.38;2.70;;;25.20;10.40;;;;;;5093953;28;20201;-77
2022/07/16 00:09:34;;;;;;;2.65;2.45;;;25.00;11.50;;;;;;5093717;28;20274;-79
2022/07/16 00:12:01;;;;;;;5.07;2.33;;;25.00;12.30;;;;;;5094283;28;20685;-77
2022/07/16 00:14:28;;;;;;;2.70;2.50;;;25.00;12.10;;;;;;5093718;28;20233;-78
2022/07/16 00:16:55;;;;;;;3.10;2.17;;;24.80;12.30;;;;;;5094102;28;20205;-77
2022/07/16 00:19:23;;;;;;;3.60;3.28;;;24.70;12.60;;;;;;5093844;28;20254;-76
2022/07/16 00:21:54;;;;;;;5.13;3.00;;;24.80;15.80;;;;;;5094163;28;20209;-79
2022/07/16 00:24:23;;;;;;;3.35;3.00;;;24.90;16.60;;;;;;5093538;28;20300;-76
2022/07/16 00:26:50;;;;;;;5.82;3.17;;;24.80;17.20;;;;;;5094159;28;20258;-78
2022/07/16 00:29:19;;;;;;;3.55;3.22;;;25.00;16.90;;;;;;5093175;28;20262;-79
2022/07/16 00:31:47;;;;;;;2.70;2.47;;;25.00;18.10;;;;;;5094116;28;20205;-77
2022/07/16 00:34:14;;;;;;;2.90;2.60;;;24.60;16.80;;;;;;5094119;28;20286;-71
2022/07/16 00:36:42;;;;;;;3.83;2.13;;;24.60;17.60;;;;;;5094170;28;20619;-78
2022/07/16 00:39:11;;;;;;;2.97;2.67;;;24.60;18.60;;;;;;5093935;28;20263;-76
2022/07/16 00:41:41;;;;;;;3.00;2.75;;;24.60;18.30;;;;;;5093241;28;20259;-76
2022/07/16 00:44:10;;;;;;;5.10;2.80;;;24.60;19.10;;;;;;5093619;28;20758;-75
2022/07/16 00:46:39;;;;;;;4.93;2.75;;;24.60;19.10;;;;;;5092918;28;20623;-75
2022/07/16 00:49:07;;;;;;;3.08;2.65;;;24.50;24.70;;;;;;5093696;28;20206;-75
2022/07/16 00:51:35;;;;;;;4.43;2.85;;;24.70;18.70;;;;;;5093138;28;20258;-75
2022/07/16 00:54:03;;;;;;;2.75;2.55;;;24.60;18.50;;;;;;5093231;28;20229;-75
2022/07/16 00:56:30;;;;;;;4.28;3.22;;;24.70;18.90;;;;;;5080997;28;20260;-79
2022/07/16 00:58:59;;;;;;;4.05;3.22;;;24.90;19.80;;;;;;5091493;28;20206;-73
2022/07/16 01:01:26;;;;;;;5.07;3.53;;;25.00;19.30;;;;;;5093044;28;20571;-77
2022/07/16 01:03:53;;;;;;;3.88;3.42;;;24.90;21.40;;;;;;5093346;28;20205;-74
2022/07/16 01:06:22;;;;;;;3.92;3.63;;;24.90;19.80;;;;;;5092623;28;20233;-78
2022/07/16 01:08:50;;;;;;;4.20;3.70;;;24.90;20.80;;;;;;5093029;28;20645;-77
2022/07/16 01:11:19;;;;;;;4.95;4.05;;;24.80;21.10;;;;;;5092741;28;20657;-75
2022/07/16 01:13:50;;;;;;;5.78;3.85;;;24.40;22.60;;;;;;5092988;28;20228;-73
2022/07/16 01:16:20;;;;;;;8.20;3.75;;;24.50;20.10;;;;;;5093545;28;20213;-74
2022/07/16 01:18:47;;;;;;;12.88;4.57;;;24.50;20.30;;;;;;5092337;28;20206;-66
2022/07/16 01:21:16;;;;;;;5.78;5.15;;;24.50;20.50;;;;;;5092607;28;20205;-69
2022/07/16 01:23:45;;;;;;;5.38;4.93;;;24.50;21.00;;;;;;5093311;28;20206;-67
2022/07/16 01:26:12;;;;;;;11.20;6.93;;;24.50;23.50;;;;;;5093026;28;20209;-68
2022/07/16 01:28:39;;;;;;;9.02;8.13;;;24.60;23.10;;;;;;5092786;28;20205;-66
2022/07/16 01:31:06;;;;;;;8.55;7.75;;;24.60;22.10;;;;;;5092692;28;20210;-70
2022/07/16 01:33:34;;;;;;;9.63;8.63;;;24.70;22.50;;;;;;5092421;28;20205;-69
2022/07/16 01:36:04;;;;;;;11.07;9.30;;;24.80;22.70;;;;;;5092248;28;20229;-67
2022/07/16 01:38:31;;;;;;;9.65;8.57;;;24.70;23.40;;;;;;5092032;28;20251;-70
2022/07/16 01:41:00;;;;;;;9.40;8.50;;;24.80;25.20;;;;;;5092647;28;20299;-67
2022/07/16 01:43:28;;;;;;;10.55;9.50;;;24.90;24.80;;;;;;5092146;28;20202;-72
2022/07/16 01:45:56;;;;;;;11.13;9.95;;;24.70;24.90;;;;;;5092442;28;20209;-70
2022/07/16 01:48:24;;;;;;;10.05;9.13;;;24.80;25.20;;;;;;5091794;28;20209;-69
2022/07/16 01:50:52;;;;;;;10.98;9.98;;;24.80;25.60;;;;;;5092287;28;20262;-80
2022/07/16 01:53:19;;;;;;;12.43;11.13;;;24.60;26.70;;;;;;5091821;28;20210;-67
2022/07/16 01:55:46;;;;;;;11.50;9.25;;;24.50;26.90;;;;;;5086410;28;20255;-70
2022/07/16 01:58:16;;;;;;;12.77;11.52;;;24.40;26.80;;;;;;5084345;28;20255;-71
2022/07/16 02:00:46;;;;;;;11.43;10.50;;;24.50;28.70;;;;;;5092512;28;20198;-70
2022/07/16 02:03:14;;;;;;;12.50;11.07;;;24.50;27.90;;;;;;5092436;28;20209;-68
2022/07/16 02:05:42;;;;;;;12.43;11.32;;;24.60;28.00;;;;;;5092069;28;20303;-73
2022/07/16 02:08:09;;;;;;;11.35;10.23;;;24.50;28.30;;;;;;5092697;28;20210;-71
2022/07/16 02:10:36;;;;;;;10.68;9.77;;;24.50;28.60;;;;;;5091640;28;20232;-74
2022/07/16 02:13:04;;;;;;;9.00;8.15;;;24.40;28.60;;;;;;5091914;28;20742;-74
2022/07/16 02:15:32;;;;;;;7.35;6.65;;;24.20;28.10;;;;;;5091215;28;20294;-78
2022/07/16 02:18:00;;;;;;;9.25;7.22;;;24.00;27.10;;;;;;5092229;28;20198;-80
2022/07/16 02:20:27;;;;;;;9.20;6.97;;;23.70;26.90;;;;;;5091478;28;20205;-80
2022/07/16 02:22:55;;;;;;;6.80;6.10;;;23.40;27.10;;;;;;5091913;28;20205;-82
2022/07/16 02:25:23;;;;;;;7.57;6.75;;;23.30;29.00;;;;;;5091804;28;20227;-84
2022/07/16 02:28:08;;;;;;;8.10;6.03;;;23.10;29.20;;;;;;5092102;28;20202;-83
2022/07/16 02:30:39;;;;;;;7.70;6.53;;;23.00;29.40;;;;;;5091300;28;20227;-82
2022/07/16 02:33:06;;;;;;;7.15;5.63;;;23.10;57.00;;;;;;5092246;28;20201;-86
2022/07/16 02:35:34;;;;;;;15.15;7.22;;;23.00;29.90;;;;;;5092122;28;20685;-84
2022/07/16 02:38:01;;;;;;;7.43;6.53;;;23.00;30.00;;;;;;5092158;28;20223;-79
2022/07/16 02:40:28;;;;;;;7.53;6.90;;;23.00;29.60;;;;;;5091067;28;20625;-76
2022/07/16 02:42:56;;;;;;;9.52;7.43;;;23.20;30.00;;;;;;5091801;28;20205;-75
2022/07/16 02:45:23;;;;;;;8.50;7.40;;;23.30;30.10;;;;;;5091175;28;20201;-82
2022/07/16 02:47:51;;;;;;;9.80;8.80;;;23.50;30.00;;;;;;5091318;28;20202;-75
2022/07/16 02:50:18;;;;;;;8.55;7.65;;;23.50;31.10;;;;;;5091014;28;20209;-78
2022/07/16 02:52:45;;;;;;;8.13;7.20;;;23.70;31.70;;;;;;5091543;28;20205;-84
2022/07/16 02:55:12;;;;;;;8.02;7.32;;;23.40;30.10;;;;;;5090370;28;20281;-77
2022/07/16 02:57:39;;;;;;;8.38;7.22;;;23.50;30.20;;;;;;5078468;28;20259;-75
2022/07/16 03:00:07;;;;;;;7.82;7.13;;;23.40;30.00;;;;;;5091135;28;20254;-75
2022/07/16 03:02:34;;;;;;;8.00;7.25;;;23.40;31.30;;;;;;5090619;28;20255;-75
2022/07/16 03:05:03;;;;;;;7.97;7.28;;;23.30;30.30;;;;;;5091220;28;20205;-76
2022/07/16 03:07:30;;;;;;;8.73;7.97;;;23.30;29.90;;;;;;5089689;28;20282;-69
2022/07/16 03:09:57;;;;;;;12.20;10.63;;;23.40;30.80;;;;;;5087921;28;20585;-72
2022/07/16 03:12:24;;;;;;;13.05;11.95;;;23.40;30.50;;;;;;5090055;28;20240;-72
2022/07/16 03:14:51;;;;;;;14.48;13.05;;;23.30;30.90;;;;;;5079907;28;20332;-73
2022/07/16 03:17:18;;;;;;;14.05;12.70;;;23.40;32.10;;;;;;5089823;28;20593;-74
2022/07/16 03:19:45;;;;;;;15.05;13.30;;;23.50;32.10;;;;;;5090983;28;20286;-71
2022/07/16 03:22:16;;;;;;;15.73;14.02;;;23.50;32.00;;;;;;5090683;28;20205;-67
2022/07/16 03:24:43;;;;;;;13.13;11.82;;;23.40;32.20;;;;;;5089726;28;20278;-72
2022/07/16 03:27:10;;;;;;;15.18;13.88;;;23.40;33.00;;;;;;5071137;28;20210;-70
2022/07/16 03:29:37;;;;;;;16.35;14.95;;;23.50;34.30;;;;;;5074382;28;20236;-71
2022/07/16 03:32:04;;;;;;;13.10;11.68;;;23.40;35.30;;;;;;5090588;28;20263;-68
2022/07/16 03:34:32;;;;;;;14.57;12.70;;;23.10;51.50;;;;;;5087409;28;20205;-73
2022/07/16 03:36:59;;;;;;;13.05;11.75;;;22.80;32.60;;;;;;5088760;28;20313;-72
2022/07/16 03:39:27;;;;;;;11.40;10.40;;;22.80;37.00;;;;;;5087802;28;20206;-69
2022/07/16 03:41:54;;;;;;;10.90;9.90;;;22.80;35.30;;;;;;5076770;28;20205;-74
2022/07/16 03:44:22;;;;;;;13.00;11.30;;;22.80;34.60;;;;;;5089939;28;20251;-70
2022/07/16 03:46:49;;;;;;;11.98;10.88;;;22.70;34.70;;;;;;5083998;28;20585;-74
2022/07/16 03:49:16;;;;;;;13.05;11.90;;;23.00;35.80;;;;;;5080895;28;20619;-70
2022/07/16 03:51:43;;;;;;;13.18;11.82;;;22.90;35.00;;;;;;5089156;28;20197;-76
2022/07/16 03:54:10;;;;;;;11.32;10.38;;;22.60;36.10;;;;;;5090406;28;20263;-76
2022/07/16 03:56:38;;;;;;;10.93;9.85;;;22.50;34.70;;;;;;5076661;28;20237;-74
2022/07/16 03:59:05;;;;;;;11.95;10.75;;;22.60;35.50;;;;;;5089684;28;20263;-73
2022/07/16 04:01:32;;;;;;;9.93;9.10;;;22.60;36.60;;;;;;5078288;28;20260;-73
2022/07/16 04:03:59;;;;;;;10.55;9.35;;;22.40;36.00;;;;;;5070760;28;20267;-74
2022/07/16 04:06:26;;;;;;;11.70;8.25;;;22.20;36.30;;;;;;5071254;28;20218;-74
2022/07/16 04:08:53;;;;;;;9.02;8.20;;;22.40;37.50;;;;;;5073080;28;20202;-77
2022/07/16 04:11:20;;;;;;;9.70;8.32;;;22.20;37.60;;;;;;5071641;28;20214;-76
2022/07/16 04:13:48;;;;;;;8.80;8.10;;;22.30;37.30;;;;;;5074757;28;20213;-76
2022/07/16 04:16:15;;;;;;;10.10;9.05;;;22.50;38.20;;;;;;5083974;28;20234;-75
2022/07/16 04:18:42;;;;;;;10.40;9.45;;;22.60;38.90;;;;;;5075031;28;20666;-75
2022/07/16 04:21:09;;;;;;;14.07;12.82;;;22.60;39.30;;;;;;5075073;28;20298;-73
2022/07/16 04:23:36;;;;;;;13.80;12.60;;;22.60;40.30;;;;;;5079635;28;20292;-71
2022/07/16 04:26:03;;;;;;;14.95;13.63;;;22.60;40.80;;;;;;5077342;28;20627;-70
2022/07/16 04:28:30;;;;;;;15.63;14.32;;;22.50;42.10;;;;;;5074229;28;20263;-68
2022/07/16 04:30:59;;;;;;;15.43;13.82;;;22.50;40.90;;;;;;5079427;28;20209;-71
2022/07/16 04:33:26;;;;;;;10.98;9.93;;;22.40;32.40;;;;;;5075138;28;20202;-71
2022/07/16 04:35:53;;;;;;;11.27;9.90;;;22.40;40.00;;;;;;5081487;28;20260;-73
2022/07/16 04:38:20;;;;;;;9.80;8.90;;;22.20;34.30;;;;;;5083511;28;20210;-72
2022/07/16 04:40:47;;;;;;;10.45;9.50;;;22.20;38.30;;;;;;5082151;28;20202;-73
2022/07/16 04:43:14;;;;;;;9.90;9.00;;;22.20;40.20;;;;;;5078711;28;20732;-70
2022/07/16 04:45:41;;;;;;;10.63;9.25;;;22.30;45.70;;;;;;5081641;28;20198;-74
2022/07/16 04:48:09;;;;;;;10.68;9.57;;;22.30;38.40;;;;;;5081111;28;20685;-70
2022/07/16 04:50:36;;;;;;;10.32;9.43;;;22.50;62.60;;;;;;5078011;28;20202;-70
2022/07/16 04:53:03;;;;;;;10.90;9.80;;;22.40;38.10;;;;;;5070701;28;20202;-71
2022/07/16 04:55:30;;;;;;;12.15;10.68;;;22.40;42.60;;;;;;5071520;28;20770;-70
2022/07/16 04:57:57;;;;;;;11.88;10.77;;;22.40;42.60;;;;;;5082383;28;20232;-72
2022/07/16 05:00:24;;;;;;;10.43;9.52;;;22.30;44.00;;;;;;5092825;28;20217;-70
2022/07/16 05:02:57;;;;;;;12.10;10.73;;;22.40;43.30;;;;;;5093258;28;20251;-70
2022/07/16 05:05:27;;;;;;;11.63;10.48;;;22.20;44.40;;;;;;5093115;28;20259;-70
2022/07/16 05:07:54;;;;;;;12.25;11.15;;;22.30;44.50;;;;;;5093436;28;20213;-71
2022/07/16 05:10:21;;;;;;;12.27;11.18;;;22.10;46.40;;;;;;5092692;28;20597;-72
2022/07/16 05:12:48;;;;;;;12.20;11.05;;;22.10;45.70;;;;;;5092967;28;20289;-71
2022/07/16 05:15:15;;;;;;;12.38;11.07;;;22.10;47.20;;;;;;5092938;28;20202;-69
2022/07/16 05:17:42;;;;;;;12.05;10.80;;;22.20;48.70;;;;;;5093321;28;20274;-69
2022/07/16 05:20:10;;;;;;;12.65;11.35;;;22.20;49.50;;;;;;5092819;28;20244;-68
2022/07/16 05:22:39;;;;;;;12.32;10.88;;;22.10;48.10;;;;;;5092978;28;20243;-70
2022/07/16 05:25:07;;;;;;;10.63;9.65;;;22.30;48.10;;;;;;5092377;28;20734;-69
2022/07/16 05:27:34;;;;;;;12.00;10.82;;;22.30;48.10;;;;;;5092823;28;20677;-69
2022/07/16 05:30:01;;;;;;;12.68;11.18;;;22.20;49.80;;;;;;5092907;28;20234;-69
2022/07/16 05:32:28;;;;;;;12.98;11.68;;;22.30;49.20;;;;;;5093230;28;20213;-70
2022/07/16 05:34:55;;;;;;;12.23;11.05;;;22.50;49.00;;;;;;5092792;28;20251;-70
2022/07/16 05:37:22;;;;;;;11.52;10.43;;;22.50;50.00;;;;;;5092362;28;20282;-69
2022/07/16 05:39:51;;;;;;;12.50;10.60;;;22.60;50.80;;;;;;5092493;28;20232;-71
2022/07/16 05:42:18;;;;;;;11.75;10.50;;;22.80;49.60;;;;;;5092528;28;20202;-68
2022/07/16 05:44:45;;;;;;;11.73;9.60;;;23.00;48.50;;;;;;5092743;28;20258;-68
2022/07/16 05:47:12;;;;;;;11.10;10.00;;;23.10;48.30;;;;;;5092609;28;20250;-73
2022/07/16 05:49:39;;;;;;;10.55;9.57;;;23.20;48.90;;;;;;5092700;28;20259;-78
2022/07/16 05:52:06;;;;;;;12.02;10.93;;;23.30;47.50;;;;;;5092144;28;20716;-70
2022/07/16 05:54:33;;;;;;;12.07;10.93;;;23.10;49.90;;;;;;5092155;28;20209;-69
2022/07/16 05:57:01;;;;;;;11.38;10.38;;;23.30;48.20;;;;;;5078102;28;20241;-72
2022/07/16 05:59:28;;;;;;;10.95;9.90;;;23.20;48.20;;;;;;5092533;28;20209;-70
2022/07/16 06:01:55;;;;;;;11.60;10.57;;;23.20;47.20;;;;;;5092357;28;20206;-75
2022/07/16 06:04:22;;;;;;;10.77;9.77;;;23.20;47.70;;;;;;5091535;28;20649;-69
2022/07/16 06:06:49;;;;;;;11.02;9.93;;;23.30;47.60;;;;;;5092208;28;20239;-69
2022/07/16 06:09:16;;;;;;;12.35;11.15;;;23.50;47.60;;;;;;5091718;28;20251;-69
2022/07/16 06:11:43;;;;;;;10.80;9.82;;;23.50;48.40;;;;;;5092535;28;20213;-70
2022/07/16 06:14:12;;;;;;;12.35;11.10;;;23.60;49.30;;;;;;5073146;28;20210;-71
2022/07/16 06:16:41;;;;;;;12.23;11.07;;;23.70;49.00;;;;;;5081227;28;20653;-69
2022/07/16 06:19:08;;;;;;;12.48;11.30;;;23.80;49.00;;;;;;5082528;28;20299;-71
2022/07/16 06:21:35;;;;;;;11.30;10.35;;;23.80;48.40;;;;;;5091887;28;20205;-72
2022/07/16 06:24:02;;;;;;;14.15;12.95;;;24.00;47.70;;;;;;5091335;28;20266;-71
2022/07/16 06:26:29;;;;;;;13.90;12.52;;;24.20;49.50;;;;;;5092022;28;20351;-72
2022/07/16 06:28:56;;;;;;;14.10;12.77;;;24.20;47.50;;;;;;5089172;28;20629;-72
2022/07/16 06:31:24;;;;;;;15.13;13.63;;;24.50;48.90;;;;;;5091278;28;20205;-72
2022/07/16 06:33:51;;;;;;;15.48;12.95;;;24.60;47.80;;;;;;5091632;28;20210;-71
2022/07/16 06:36:18;;;;;;;14.32;13.02;;;24.80;78.30;;;;;;5090964;28;20263;-72
2022/07/16 06:38:46;;;;;;;14.98;13.68;;;24.80;47.20;;;;;;5091905;28;20267;-71
2022/07/16 06:41:13;;;;;;;14.32;13.07;;;24.90;48.70;;;;;;5091293;28;20296;-72
2022/07/16 06:43:40;;;;;;;14.63;13.23;;;25.00;46.90;;;;;;5091734;28;20202;-71
2022/07/16 06:46:07;;;;;;;14.38;12.27;;;25.00;47.70;;;;;;5090915;28;20206;-73
2022/07/16 06:48:35;;;;;;;14.93;13.63;;;25.10;46.80;;;;;;5091475;28;20212;-72
2022/07/16 06:51:02;;;;;;;15.15;13.82;;;25.10;46.40;;;;;;5090944;28;20210;-71
2022/07/16 06:53:29;;;;;;;15.68;14.07;;;25.20;47.10;;;;;;5091067;28;20206;-71
2022/07/16 06:55:56;;;;;;;16.38;14.88;;;25.30;47.30;;;;;;5089027;28;20710;-73
2022/07/16 06:58:23;;;;;;;16.33;14.82;;;25.40;46.80;;;;;;5090841;28;20669;-70
2022/07/16 07:00:50;;;;;;;19.55;17.70;;;25.40;47.50;;;;;;5091175;28;20209;-71
2022/07/16 07:03:17;;;;;;;17.52;15.88;;;25.50;47.10;;;;;;5091258;28;20205;-73
2022/07/16 07:05:46;;;;;;;17.35;15.60;;;25.60;76.20;;;;;;5087274;28;20233;-72
2022/07/16 07:08:13;;;;;;;16.45;15.02;;;25.70;48.10;;;;;;5091002;28;20209;-72
2022/07/16 07:10:40;;;;;;;16.30;14.73;;;25.70;46.10;;;;;;5091068;28;20568;-72
2022/07/16 07:13:07;;;;;;;17.02;15.52;;;25.70;46.80;;;;;;5086538;28;20283;-72
2022/07/16 07:15:33;;;;;;;17.60;15.93;;;25.80;46.60;;;;;;5082000;28;20672;-73
2022/07/16 07:18:01;;;;;;;16.13;14.63;;;26.00;46.40;;;;;;5082258;28;20294;-72
2022/07/16 07:20:29;;;;;;;15.38;13.93;;;26.00;46.50;;;;;;5080539;28;20206;-72
2022/07/16 07:22:58;;;;;;;16.80;15.10;;;26.20;47.80;;;;;;5076518;28;20208;-72
2022/07/16 07:25:25;;;;;;;17.08;15.48;;;26.30;46.60;;;;;;5079316;28;20209;-75
2022/07/16 07:27:52;;;;;;;17.27;15.77;;;26.30;44.90;;;;;;5090758;28;20217;-71
2022/07/16 07:30:19;;;;;;;17.65;16.08;;;26.50;46.00;;;;;;5090403;28;20633;-73
2022/07/16 07:32:46;;;;;;;16.23;14.88;;;26.50;45.30;;;;;;5091324;28;20202;-76
2022/07/16 07:35:13;;;;;;;16.30;14.68;;;26.60;44.00;;;;;;5090431;28;20206;-75
2022/07/16 07:37:40;;;;;;;16.95;15.45;;;26.60;45.00;;;;;;5091025;28;20241;-73
2022/07/16 07:40:10;;;;;;;16.45;14.95;;;26.70;45.10;;;;;;5090186;28;20241;-71
2022/07/16 07:42:37;;;;;;;16.30;14.85;;;27.10;45.10;;;;;;5090808;28;20203;-70
2022/07/16 07:45:05;;;;;;;16.85;15.25;;;27.10;43.50;;;;;;5090427;28;20258;-73
2022/07/16 07:47:32;;;;;;;19.30;16.30;;;27.10;45.50;;;;;;5076955;28;20254;-71
2022/07/16 07:49:59;;;;;;;16.63;15.23;;;27.20;43.60;;;;;;5090616;28;20209;-75
2022/07/16 07:52:26;;;;;;;18.10;16.38;;;27.30;43.10;;;;;;5090454;28;20240;-75
2022/07/16 07:54:53;;;;;;;18.08;16.48;;;27.20;43.10;;;;;;5090528;28;20251;-76
2022/07/16 07:57:21;;;;;;;17.33;15.65;;;27.40;43.80;;;;;;5076076;28;20275;-73
2022/07/16 07:59:48;;;;;;;16.60;14.95;;;27.70;43.10;;;;;;5091110;28;20275;-72
2022/07/16 08:02:15;;;;;;;18.30;16.65;;;27.70;43.10;;;;;;5090000;28;20673;-74
2022/07/16 08:04:42;;;;;;;19.55;17.80;;;27.80;42.50;;;;;;5086899;28;20205;-70
2022/07/16 08:07:09;;;;;;;17.15;15.60;;;27.90;42.10;;;;;;5090095;28;20255;-70
2022/07/16 08:09:37;;;;;;;17.10;15.60;;;27.90;41.90;;;;;;5090544;28;20201;-73
2022/07/16 08:12:04;;;;;;;18.08;16.48;;;28.20;41.40;;;;;;5089919;28;20222;-70
2022/07/16 08:14:32;;;;;;;18.52;16.73;;;28.30;41.40;;;;;;5090528;28;20205;-69
2022/07/16 08:17:00;;;;;;;17.42;15.93;;;28.60;41.80;;;;;;5090167;28;20271;-70
2022/07/16 08:19:27;;;;;;;19.27;17.20;;;28.90;45.80;;;;;;5089999;28;20209;-70
2022/07/16 08:21:54;;;;;;;17.45;15.70;;;29.00;40.90;;;;;;5090320;28;20201;-74
2022/07/16 08:27:06;;;;;;;17.65;15.95;;;29.00;41.00;;;;;;5091837;28;20215;-70
2022/07/16 08:29:34;;;;;;;17.90;16.17;;;29.40;41.40;;;;;;5093923;28;20201;-71
2022/07/16 08:32:02;;;;;;;17.77;15.18;;;29.50;40.30;;;;;;5093732;28;20266;-68
2022/07/16 08:34:29;;;;;;;15.80;14.50;;;29.60;39.50;;;;;;5093796;28;20559;-70
2022/07/16 08:36:55;;;;;;;17.88;16.35;;;29.50;38.70;;;;;;5093845;28;20233;-72
2022/07/16 08:39:23;;;;;;;17.17;15.38;;;29.30;38.10;;;;;;5093741;28;20202;-69
2022/07/16 08:41:52;;;;;;;17.60;15.98;;;29.50;38.10;;;;;;5094366;28;20247;-71
2022/07/16 08:44:19;;;;;;;17.17;15.57;;;29.60;37.30;;;;;;5094052;28;20578;-71
2022/07/16 08:46:47;;;;;;;14.98;13.45;;;29.80;38.90;;;;;;5089744;28;20738;-70
2022/07/16 08:49:14;;;;;;;15.73;14.15;;;30.00;39.10;;;;;;5093103;28;20209;-75
2022/07/16 08:51:41;;;;;;;16.73;15.13;;;29.90;42.20;;;;;;5093468;28;20206;-74
2022/07/16 08:54:13;;;;;;;16.55;14.90;;;30.20;42.90;;;;;;5093656;28;20353;-74
2022/07/16 08:56:42;;;;;;;16.35;15.05;;;30.20;43.00;;;;;;5080478;28;20234;-74
2022/07/16 08:59:10;;;;;;;17.17;15.77;;;30.60;41.90;;;;;;5092670;28;20222;-74
2022/07/16 09:01:37;;;;;;;16.17;14.68;;;30.40;44.50;;;;;;5093253;28;20590;-75
2022/07/16 09:04:06;;;;;;;18.17;16.33;;;32.30;48.30;;;;;;5093016;28;20263;-73
2022/07/16 09:06:33;;;;;;;16.02;14.70;;;33.50;40.10;;;;;;5093387;28;20258;-76
2022/07/16 09:09:00;;;;;;;14.43;13.13;;;35.60;43.20;;;;;;5093766;28;20237;-76
2022/07/16 09:11:31;;;;;;;13.77;12.57;;;37.30;43.20;;;;;;5093413;28;20261;-78
2022/07/16 09:14:05;;;;;;;12.93;11.57;;;35.60;39.40;;;;;;5093691;28;20209;-82
2022/07/16 09:16:34;;;;;;;13.02;12.02;;;33.60;37.50;;;;;;5077713;28;20670;-81
2022/07/16 09:19:10;;;;;;;13.20;12.18;;;33.10;37.70;;;;;;5093094;28;20254;-71
2022/07/16 09:21:38;;;;;;;10.93;10.10;;;33.30;37.30;;;;;;5091524;28;20208;-75
2022/07/16 09:24:05;;;;;;;11.43;10.52;;;33.60;37.70;;;;;;5091440;28;20196;-69
2022/07/16 09:26:32;;;;;;;8.90;8.20;;;33.60;37.10;;;;;;5092680;28;20243;-74
2022/07/16 09:29:04;;;;;;;10.18;9.18;;;33.80;36.80;;;;;;5092909;28;20254;-76
2022/07/16 09:31:39;;;;;;;11.73;10.63;;;33.40;36.70;;;;;;5090243;28;20205;-69
2022/07/16 09:34:10;;;;;;;12.10;11.10;;;33.60;37.10;;;;;;5076501;28;20676;-73
2022/07/16 09:36:38;;;;;;;11.07;10.27;;;33.50;36.50;;;;;;5076070;28;20263;-69
2022/07/16 09:39:06;;;;;;;12.13;10.95;;;33.80;66.90;;;;;;5074686;28;20201;-78
2022/07/16 09:41:44;;;;;;;11.68;10.30;;;35.20;39.70;;;;;;5075703;28;20296;-75
2022/07/16 09:44:16;;;;;;;11.45;10.52;;;36.70;43.30;;;;;;5073342;28;20232;-71
2022/07/16 09:47:01;;;;;;;12.35;11.25;;;38.10;50.50;;;;;;5079401;28;20733;-74
2022/07/16 09:49:32;;;;;;;12.82;11.82;;;41.00;62.20;;;;;;5077921;28;20251;-84
2022/07/16 09:51:59;;;;;;;12.55;11.65;;;43.20;69.10;;;;;;5085274;28;20197;-75
2022/07/16 09:54:28;;;;;;;10.90;10.10;;;43.20;71.70;;;;;;5084646;28;20213;-73
2022/07/16 09:57:15;;;;;;;10.25;9.35;;;41.10;62.70;;;;;;5075294;28;20229;-78
2022/07/16 09:59:43;;;;;;;10.05;9.25;;;39.70;53.50;;;;;;5082432;28;20945;-72
2022/07/16 10:02:10;;;;;;;8.80;7.90;;;36.70;44.90;;;;;;5075194;28;20237;-72
2022/07/16 10:04:39;;;;;;;10.05;9.07;;;36.50;42.70;;;;;;5074277;28;20206;-69
2022/07/16 10:07:07;;;;;;;10.98;10.18;;;37.70;46.80;;;;;;5076393;28;20684;-69
2022/07/16 10:09:34;;;;;;;9.85;9.07;;;38.60;52.00;;;;;;5075036;28;20255;-69
2022/07/16 10:12:06;;;;;;;7.32;6.53;;;40.50;56.20;;;;;;5082819;28;20258;-69
2022/07/16 10:14:35;;;;;;;8.00;7.40;;;43.20;69.30;;;;;;5071499;28;20216;-72
2022/07/16 10:17:12;;;;;;;5.97;5.55;;;43.40;67.50;;;;;;5074205;28;20232;-71
2022/07/16 10:19:41;;;;;;;7.32;5.25;;;44.80;67.10;;;;;;5076432;28;20243;-76
2022/07/16 10:22:17;;;;;;;6.50;5.88;;;45.60;77.30;;;;;;5075040;28;20265;-72
2022/07/16 10:24:46;;;;;;;5.10;4.70;;;43.10;67.00;;;;;;5077112;28;20246;-79
2022/07/16 10:27:24;;;;;;;5.40;4.90;;;44.40;68.70;;;;;;5090965;28;20205;-73
2022/07/16 10:29:51;;;;;;;4.50;4.13;;;46.40;66.90;;;;;;5085434;28;20208;-73
2022/07/16 10:32:30;;;;;;;4.13;3.78;;;46.30;72.20;;;;;;5084053;28;20262;-73
2022/07/16 10:35:01;;;;;;;5.47;3.63;;;47.30;73.50;;;;;;5077615;28;20746;-70
2022/07/16 10:37:33;;;;;;;4.75;4.45;;;47.60;73.90;;;;;;5083497;28;20228;-71
2022/07/16 10:40:06;;;;;;;3.80;3.55;;;46.70;73.10;;;;;;5078407;28;20286;-71
2022/07/16 10:42:34;;;;;;;4.05;3.75;;;44.50;43.80;;;;;;5084483;28;20697;-70
2022/07/16 10:45:01;;;;;;;4.85;4.45;;;38.80;25.60;;;;;;5079797;28;20623;-71
2022/07/16 10:47:44;;;;;;;3.55;3.35;;;35.90;18.80;;;;;;5084350;28;20208;-73
2022/07/16 10:50:21;;;;;;;4.63;4.07;;;35.60;17.80;;;;;;5079735;28;20198;-72
2022/07/16 10:52:51;;;;;;;3.45;3.25;;;35.30;16.70;;;;;;5085915;28;20209;-77
2022/07/16 10:55:33;;;;;;;2.92;2.72;;;35.20;17.20;;;;;;5079783;28;20205;-76
2022/07/16 10:58:02;;;;;;;2.92;2.72;;;35.70;16.80;;;;;;5081124;28;20232;-72
2022/07/16 11:00:29;;;;;;;2.95;2.72;;;35.70;15.40;;;;;;5074071;28;20204;-75
2022/07/16 11:03:01;;;;;;;3.30;3.10;;;35.60;14.30;;;;;;5070685;28;20205;-72
2022/07/16 11:05:31;;;;;;;2.33;2.13;;;35.60;14.80;;;;;;5070609;28;20202;-72
2022/07/16 11:08:10;;;;;;;2.88;2.67;;;35.50;12.60;;;;;;5071056;28;20205;-73
2022/07/16 11:10:39;;;;;;;5.60;2.83;;;35.70;14.50;;;;;;5070650;28;20206;-69
2022/07/16 11:13:12;;;;;;;3.22;2.70;;;35.80;12.80;;;;;;5069966;28;20216;-71
2022/07/16 11:15:40;;;;;;;3.17;2.67;;;35.80;12.60;;;;;;5070590;28;20205;-69
2022/07/16 11:18:15;;;;;;;2.63;2.42;;;35.80;12.60;;;;;;5070372;28;20225;-70
2022/07/16 11:20:45;;;;;;;2.80;2.60;;;35.40;12.70;;;;;;5070727;28;20209;-70
2022/07/16 11:23:12;;;;;;;3.55;2.83;;;35.40;12.30;;;;;;5070243;28;20208;-72
2022/07/16 11:26:01;;;;;;;2.67;2.47;;;35.80;13.00;;;;;;5069959;28;20757;-71
2022/07/16 11:28:28;;;;;;;5.00;2.42;;;35.80;13.60;;;;;;5071311;28;20300;-70
2022/07/16 11:31:03;;;;;;;3.78;2.42;;;35.40;11.40;;;;;;5070755;28;20251;-71
2022/07/16 11:33:34;;;;;;;2.47;2.28;;;35.70;11.30;;;;;;5070591;28;20205;-70
2022/07/16 11:36:13;;;;;;;3.70;2.17;;;35.80;32.10;;;;;;5069840;28;20209;-70
2022/07/16 11:38:41;;;;;;;1.70;1.60;;;36.20;11.90;;;;;;5070705;28;20240;-72
2022/07/16 11:41:08;;;;;;;3.25;2.45;;;36.30;10.30;;;;;;5069743;28;20259;-71
2022/07/16 11:43:36;;;;;;;3.65;2.05;;;36.30;9.70;;;;;;5070613;28;20210;-72
2022/07/16 11:46:03;;;;;;;2.25;2.10;;;35.90;8.70;;;;;;5069845;28;20209;-70
2022/07/16 11:48:36;;;;;;;2.58;2.38;;;35.80;8.40;;;;;;5070288;28;20201;-71
2022/07/16 11:51:09;;;;;;;3.33;2.53;;;35.80;8.50;;;;;;5069412;28;20228;-70
2022/07/16 11:53:37;;;;;;;3.08;2.88;;;36.10;10.10;;;;;;5075133;28;20205;-75
2022/07/16 11:56:06;;;;;;;2.83;2.63;;;36.10;9.70;;;;;;5070728;28;20201;-76
2022/07/16 11:58:33;;;;;;;5.93;2.50;;;36.10;8.80;;;;;;5084803;28;20607;-79
2022/07/16 12:01:00;;;;;;;2.17;2.03;;;36.20;10.40;;;;;;5071282;28;20205;-75
2022/07/16 12:03:27;;;;;;;2.67;2.47;;;36.40;10.10;;;;;;5078341;28;20551;-73
2022/07/16 12:06:01;;;;;;;1.73;1.63;;;36.40;8.70;;;;;;5074635;28;20237;-73
2022/07/16 12:08:30;;;;;;;2.10;1.90;;;36.30;7.80;;;;;;5080711;28;20212;-74
2022/07/16 12:11:01;;;;;;;2.17;1.98;;;36.40;7.70;;;;;;5086962;28;20669;-75
2022/07/16 12:13:29;;;;;;;1.98;1.88;;;36.50;7.60;;;;;;5090084;28;20725;-71
2022/07/16 12:15:57;;;;;;;3.03;2.70;;;36.70;9.10;;;;;;5090278;28;20262;-77
2022/07/16 12:18:24;;;;;;;2.63;2.50;;;36.30;7.90;;;;;;5077897;28;20724;-77
2022/07/16 12:20:51;;;;;;;2.75;2.55;;;36.40;9.20;;;;;;5082660;28;20664;-74
2022/07/16 12:23:33;;;;;;;2.42;2.20;;;36.30;7.70;;;;;;5077092;28;20326;-73
2022/07/16 12:26:06;;;;;;;1.88;1.73;;;36.00;8.20;;;;;;5085597;28;20201;-67
2022/07/16 12:28:34;;;;;;;1.77;1.67;;;36.20;8.60;;;;;;5073946;28;20206;-74
2022/07/16 12:31:06;;;;;;;2.25;1.55;;;36.70;8.00;;;;;;5081115;28;20209;-74
2022/07/16 12:33:34;;;;;;;1.30;1.20;;;36.90;6.90;;;;;;5085527;28;20205;-75
2022/07/16 12:36:03;;;;;;;3.05;1.67;;;37.00;7.40;;;;;;5081457;28;20676;-71
2022/07/16 12:38:48;;;;;;;1.77;1.67;;;37.30;7.40;;;;;;5076657;28;20240;-75
2022/07/16 12:41:17;;;;;;;1.80;1.60;;;37.30;7.80;;;;;;5073098;28;20568;-72
2022/07/16 12:43:49;;;;;;;1.65;1.55;;;37.20;8.20;;;;;;5073623;28;20665;-75
2022/07/16 12:46:17;;;;;;;1.95;1.85;;;37.30;6.70;;;;;;5079657;28;20197;-68
2022/07/16 12:48:46;;;;;;;1.90;1.80;;;37.20;7.50;;;;;;5077593;28;20593;-70